Time;durP1;ratioP1;P1;durP2;ratioP2;P2;SDS_P1;SDS_P2;PMS_P1;PMS_P2;Temp;Humidity;BMP_temperature;BMP_pressure;BME280_temperature;BME280_humidity;BME280_pressure;Samples;Min_cycle;Max_cycle;Signal;HPM_P1;HPM_P2
2022/08/11 07:17:39;;;;;;;6.30;2.87;;;;;;;18.53;68.89;101489.27;1825794;78;21034;-80
2022/08/11 07:28:57;;;;;;;3.50;2.37;;;;;;;19.13;67.07;101490.91;1809927;78;21015;-82
2022/08/11 07:31:35;;;;;;;2.72;2.02;;;;;;;19.33;66.40;101484.47;1811594;78;21366;-81
2022/08/11 07:34:23;;;;;;;6.03;2.10;;;;;;;19.59;65.89;101495.81;1806647;78;21171;-81
2022/08/11 07:36:57;;;;;;;3.15;2.02;;;;;;;19.81;65.35;101489.26;1792994;77;20991;-81
2022/08/11 07:39:34;;;;;;;5.90;1.90;;;;;;;19.93;64.82;101487.70;1826387;78;21053;-79
2022/08/11 07:42:09;;;;;;;2.98;1.87;;;;;;;20.09;64.53;101481.83;1828674;78;21044;-78
2022/08/11 07:48:10;;;;;;;4.67;1.62;;;;;;;20.34;63.78;101485.68;1829248;78;20976;-80
2022/08/11 07:52:39;;;;;;;2.67;1.65;;;;;;;20.83;62.57;101474.69;1817785;78;21027;-77
2022/08/11 07:55:16;;;;;;;3.83;1.45;;;;;;;21.05;61.80;101480.84;1806728;78;22244;-85
2022/08/11 08:17:55;;;;;;;1.87;1.35;;;;;;;22.32;57.66;101470.25;1821181;78;21517;-79
2022/08/11 08:20:32;;;;;;;2.15;1.30;;;;;;;22.54;57.15;101465.59;1821990;78;20999;-78
2022/08/11 08:23:03;;;;;;;3.87;1.55;;;;;;;22.73;56.39;101467.82;1821559;78;20978;-79
2022/08/11 08:25:34;;;;;;;2.77;1.35;;;;;;;22.93;56.00;101473.91;1822056;78;20979;-79
2022/08/11 08:28:06;;;;;;;1.42;1.30;;;;;;;23.05;55.63;101465.02;1794242;78;21326;-80
2022/08/11 08:30:46;;;;;;;2.87;1.45;;;;;;;23.18;55.09;101463.66;1797461;78;21015;-78
2022/08/11 08:33:29;;;;;;;5.28;1.40;;;;;;;23.33;54.58;101462.55;1811810;78;21492;-77
2022/08/11 08:36:17;;;;;;;2.67;1.65;;;;;;;23.49;53.99;101458.22;1794535;78;21082;-78
2022/08/11 08:38:52;;;;;;;4.00;1.32;;;;;;;23.62;53.22;101458.66;1794607;78;21144;-78
2022/08/11 08:41:30;;;;;;;3.83;1.60;;;;;;;23.71;52.75;101450.80;1795471;78;21147;-79
2022/08/11 08:44:03;;;;;;;3.60;1.77;;;;;;;23.82;52.49;101449.99;1794232;78;21023;-82
2022/08/11 08:46:38;;;;;;;4.30;1.52;;;;;;;23.93;52.00;101443.33;1794473;78;21000;-79
2022/08/11 08:49:08;;;;;;;4.62;1.60;;;;;;;24.01;51.88;101440.91;1793645;78;21013;-80
2022/08/11 08:51:39;;;;;;;3.20;1.22;;;;;;;24.08;51.49;101447.13;1794660;78;20991;-80
2022/08/11 08:54:12;;;;;;;4.08;1.70;;;;;;;24.12;51.22;101446.78;1794121;78;21995;-80
2022/08/11 08:56:42;;;;;;;4.40;1.98;;;;;;;24.17;51.20;101442.41;1794420;78;21062;-80
2022/08/11 08:59:12;;;;;;;3.30;1.30;;;;;;;24.23;50.65;101442.77;1794188;78;21054;-80
2022/08/11 09:01:56;;;;;;;1.60;1.50;;;;;;;24.27;50.11;101441.55;1794710;78;21023;-80
2022/08/11 09:04:26;;;;;;;2.05;1.35;;;;;;;24.37;50.18;101438.17;1809515;78;21011;-80
2022/08/11 09:06:55;;;;;;;2.40;1.75;;;;;;;24.51;49.68;101431.25;1794601;78;27647;-80
2022/08/11 09:09:23;;;;;;;3.00;2.05;;;;;;;24.60;49.40;101437.21;1798806;78;21473;-80
2022/08/11 09:11:52;;;;;;;3.70;1.70;;;;;;;24.67;49.30;101437.09;1813275;78;21026;-80
2022/08/11 09:14:59;;;;;;;2.93;1.80;;;;;;;24.82;49.30;101440.86;1794302;78;21011;-83
2022/08/11 09:16:53;;;;;;;3.08;1.70;;;;;;;24.99;48.47;101434.97;1809363;78;21275;-78
2022/08/11 09:19:23;;;;;;;1.47;1.35;;;;;;;25.16;48.33;101429.59;1796464;78;21834;-79
2022/08/11 09:27:24;;;;;;;1.67;1.37;;;;;;;25.69;46.60;101432.80;1799843;78;21521;-78
2022/08/11 09:29:52;;;;;;;2.62;1.52;;;;;;;25.84;46.01;101434.72;1824493;78;21529;-79
2022/08/11 09:32:21;;;;;;;3.22;1.80;;;;;;;25.89;45.88;101432.00;1825783;78;21117;-77
2022/08/11 09:34:51;;;;;;;2.97;1.60;;;;;;;26.01;45.60;101430.94;1794750;78;21508;-79
2022/08/11 09:40:28;;;;;;;2.85;1.67;;;;;;;26.28;45.22;101423.32;1813920;78;20994;-77
2022/08/11 09:45:52;;;;;;;2.62;1.62;;;;;;;26.38;44.68;101420.16;1812861;78;21168;-76
2022/08/11 09:48:23;;;;;;;3.15;1.50;;;;;;;26.32;44.13;101417.52;1799680;78;21359;-76
2022/08/11 09:50:59;;;;;;;4.17;1.77;;;;;;;26.13;43.62;101430.86;1795766;78;21003;-77
2022/08/11 09:53:31;;;;;;;4.55;1.50;;;;;;;26.00;43.66;101425.22;1794278;78;21685;-76
2022/08/11 09:58:12;;;;;;;3.02;1.60;;;;;;;25.98;43.66;101428.52;1792533;78;21033;-76
2022/08/11 09:58:29;;;;;;;2.35;1.45;;;;;;;26.00;43.47;101425.22;1778274;78;21109;-77
2022/08/11 10:01:00;;;;;;;3.40;1.60;;;;;;;26.11;43.44;101422.11;1807079;78;20976;-76
2022/08/11 10:03:30;;;;;;;2.33;1.40;;;;;;;26.28;43.43;101418.80;1805659;78;20998;-76
2022/08/11 10:08:52;;;;;;;6.87;1.98;;;;;;;26.21;42.71;101417.61;1812166;78;21217;-76
2022/08/11 10:11:22;;;;;;;1.87;1.30;;;;;;;26.21;42.53;101416.27;1787833;78;21124;-77
2022/08/11 10:16:41;;;;;;;2.72;1.40;;;;;;;26.57;42.27;101397.92;1811337;78;21034;-79
2022/08/11 10:19:10;;;;;;;9.35;2.20;;;;;;;26.88;42.16;101395.54;1802768;78;21023;-76
2022/08/11 10:27:29;;;;;;;4.28;1.20;;;;;;;27.92;40.73;101392.30;1791967;78;21469;-76
2022/08/11 10:35:32;;;;;;;3.05;1.20;;;;;;;28.77;39.07;101387.72;1805226;78;21034;-76
2022/08/11 10:38:28;;;;;;;2.60;1.10;;;;;;;29.03;39.19;101381.06;1823066;77;21092;-82
2022/08/11 10:44:23;;;;;;;2.12;1.12;;;;;;;29.25;38.03;101379.79;1752047;78;21471;-79
2022/08/11 10:59:34;;;;;;;3.45;1.12;;;;;;;29.79;35.85;101369.76;1343610;105;21216;-84
2022/08/11 11:02:01;;;;;;;4.20;1.02;;;;;;;29.22;35.50;101366.60;1346826;105;21200;-79
2022/08/11 11:04:34;;;;;;;2.90;1.35;;;;;;;28.82;35.92;101366.02;1336064;105;21230;-77
2022/08/11 11:07:19;;;;;;;2.05;1.20;;;;;;;28.44;35.46;101361.20;1337648;104;21331;-85
2022/08/11 11:18:37;;;;;;;2.50;1.35;;;;;;;28.10;36.25;101350.60;1318744;107;21259;-87
2022/08/11 11:21:11;;;;;;;2.30;1.25;;;;;;;28.07;36.01;101350.40;1333167;107;21340;-84
2022/08/11 11:24:04;;;;;;;4.45;1.50;;;;;;;28.27;36.25;101355.23;1333211;107;21624;-84
2022/08/11 11:26:49;;;;;;;7.65;1.67;;;;;;;28.54;36.19;101343.60;1349079;103;21291;-86
2022/08/11 11:30:06;;;;;;;2.77;1.50;;;;;;;28.91;35.66;101341.31;1426243;94;21077;-87
2022/08/11 11:32:47;;;;;;;3.22;1.50;;;;;;;28.99;35.38;101340.05;1585911;87;21030;-85
2022/08/11 11:35:43;;;;;;;4.03;1.42;;;;;;;29.20;35.33;101335.70;1647300;87;21137;-81
2022/08/11 11:38:10;;;;;;;1.75;1.20;;;;;;;29.51;35.20;101332.05;1647420;87;21038;-77
2022/08/11 11:40:39;;;;;;;3.47;1.47;;;;;;;29.78;34.84;101328.37;1661714;86;21039;-81
2022/08/11 11:43:07;;;;;;;2.83;1.42;;;;;;;29.76;34.28;101323.66;1624596;86;21136;-83
2022/08/11 11:45:35;;;;;;;2.37;1.55;;;;;;;29.50;34.33;101330.36;1663194;84;21029;-80
2022/08/11 11:48:03;;;;;;;5.87;1.57;;;;;;;29.19;34.39;101332.66;1656119;86;21119;-87
2022/08/11 11:50:34;;;;;;;3.52;1.70;;;;;;;28.88;34.34;101327.63;1657237;85;21597;-82
2022/08/11 11:53:09;;;;;;;1.87;1.35;;;;;;;28.51;34.41;101323.68;1654823;84;21116;-81
2022/08/11 11:55:37;;;;;;;7.60;1.50;;;;;;;28.22;34.64;101326.52;1662298;85;21590;-82
2022/08/11 12:03:39;;;;;;;1.52;1.20;;;;;;;27.65;35.25;101322.50;1685263;85;21030;-80
2022/08/11 12:06:12;;;;;;;1.62;1.37;;;;;;;27.99;35.22;101310.73;1685411;85;22024;-86
2022/08/11 12:08:39;;;;;;;3.83;1.57;;;;;;;28.37;35.12;101303.94;1685529;85;21529;-84
2022/08/11 12:14:01;;;;;;;4.78;1.50;;;;;;;29.09;34.37;101306.24;1657624;86;21180;-84
2022/08/11 12:16:29;;;;;;;10.98;2.45;;;;;;;29.40;34.12;101298.55;1657325;86;21029;-84
2022/08/11 12:18:59;;;;;;;4.08;1.55;;;;;;;29.70;33.68;101301.31;1657817;86;21415;-85
2022/08/11 12:21:28;;;;;;;2.95;1.32;;;;;;;29.82;33.16;101292.45;1643900;86;21490;-84
2022/08/11 12:29:19;;;;;;;3.00;1.00;;;;;;;30.17;32.85;101293.27;1660087;84;21050;-84
2022/08/11 12:31:48;;;;;;;8.18;1.50;;;;;;;30.40;32.82;101290.34;1656134;84;20905;-83
2022/08/11 12:34:16;;;;;;;3.70;1.27;;;;;;;30.66;32.52;101280.75;1653948;84;21087;-84
2022/08/11 12:36:58;;;;;;;4.40;1.12;;;;;;;30.84;32.24;101286.03;1652912;85;21062;-84
2022/08/11 12:51:55;;;;;;;2.98;1.05;;;;;;;31.07;30.42;101265.92;1653839;84;21036;-85
2022/08/11 12:52:52;;;;;;;4.20;1.15;;;;;;;31.13;30.12;101261.69;1653842;84;22127;-84
2022/08/11 12:58:15;;;;;;;3.52;1.15;;;;;;;31.26;29.56;101255.73;1666765;84;21030;-84
2022/08/11 13:06:23;;;;;;;10.70;1.45;;;;;;;30.54;29.41;101253.69;1654043;84;21134;-84
2022/08/11 13:08:51;;;;;;;2.37;1.17;;;;;;;30.33;29.73;101254.66;1653769;84;21047;-84
2022/08/11 13:14:05;;;;;;;9.00;1.55;;;;;;;30.50;29.53;101240.14;1654355;84;21008;-83
2022/08/11 13:19:23;;;;;;;0.82;0.80;;;;;;;30.82;29.45;101237.17;1675817;85;21555;-83
2022/08/11 13:21:52;;;;;;;1.90;1.00;;;;;;;30.79;28.67;101226.63;1668478;84;21019;-83
2022/08/11 13:24:21;;;;;;;2.92;1.05;;;;;;;30.77;28.55;101216.50;1653721;84;21087;-83
2022/08/11 13:26:49;;;;;;;2.55;0.90;;;;;;;30.79;28.57;101211.26;1654209;84;21086;-84
2022/08/11 13:29:24;;;;;;;2.00;0.88;;;;;;;30.82;28.31;101211.45;1653693;84;21531;-82
2022/08/11 13:31:57;;;;;;;7.05;1.10;;;;;;;30.82;28.33;101206.89;1653714;84;21163;-83
2022/08/11 13:34:27;;;;;;;1.22;0.80;;;;;;;30.82;28.55;101204.70;1661653;85;21078;-83
2022/08/11 13:36:58;;;;;;;2.40;1.00;;;;;;;30.80;28.42;101199.95;1653957;84;21008;-82
2022/08/11 13:39:29;;;;;;;1.77;1.00;;;;;;;30.88;28.61;101191.31;1653832;84;21464;-83
2022/08/11 13:41:59;;;;;;;2.42;1.20;;;;;;;31.07;28.64;101195.53;1664858;85;21468;-82
2022/08/11 13:44:34;;;;;;;5.58;1.30;;;;;;;30.87;28.54;101199.11;1653691;84;21108;-84
2022/08/11 13:47:07;;;;;;;1.75;1.30;;;;;;;30.59;28.34;101207.17;1653699;85;20967;-83
2022/08/11 13:49:40;;;;;;;5.75;1.22;;;;;;;30.16;28.65;101206.41;1653691;84;21493;-83
2022/08/11 13:52:14;;;;;;;1.17;1.07;;;;;;;29.75;28.54;101202.22;1653951;85;21511;-82
2022/08/11 13:54:45;;;;;;;1.67;1.20;;;;;;;29.36;28.70;101193.22;1653619;84;21060;-82
2022/08/11 13:57:17;;;;;;;2.47;1.10;;;;;;;29.02;29.18;101198.55;1653951;84;21173;-83
2022/08/11 13:59:46;;;;;;;3.55;1.47;;;;;;;28.72;29.53;101193.92;1653745;84;21092;-83
2022/08/11 14:02:15;;;;;;;;;;;;;;;28.66;29.93;101189.16;1675783;85;21560;-83
2022/08/11 14:04:51;;;;;;;4.53;1.30;;;;;;;28.71;29.77;101188.67;1653320;84;20173;-83
2022/08/11 14:07:22;;;;;;;1.90;1.20;;;;;;;28.81;30.12;101188.93;1653984;85;22127;-83
2022/08/11 14:09:59;;;;;;;1.52;1.12;;;;;;;29.02;30.24;101189.94;1653662;84;21103;-82
2022/08/11 14:15:34;;;;;;;2.52;1.37;;;;;;;29.28;30.08;101187.27;1665578;84;21036;-83
2022/08/11 14:18:08;;;;;;;2.90;1.45;;;;;;;29.45;29.88;101184.66;1685565;84;20944;-83
2022/08/11 14:23:36;;;;;;;1.75;1.20;;;;;;;29.76;30.06;101175.05;1657585;86;21813;-83
2022/08/11 14:26:22;;;;;;;3.60;1.00;;;;;;;29.85;29.81;101175.05;1646874;85;21077;-84
2022/08/11 14:28:55;;;;;;;3.58;1.30;;;;;;;29.87;29.89;101165.77;1641003;86;21050;-83
2022/08/11 14:31:31;;;;;;;3.60;1.40;;;;;;;29.85;29.93;101169.16;1677209;84;20997;-84
2022/08/11 14:34:05;;;;;;;6.05;1.10;;;;;;;29.87;29.74;101172.52;1655284;85;21296;-83
2022/08/11 14:36:36;;;;;;;3.40;1.20;;;;;;;29.92;29.52;101168.83;1657315;84;21139;-84
2022/08/11 14:39:11;;;;;;;1.37;1.20;;;;;;;29.94;29.27;101173.57;1644702;86;21053;-83
2022/08/11 14:47:39;;;;;;;2.55;1.12;;;;;;;29.99;28.92;101148.77;1685355;85;21049;-82
2022/08/11 14:50:13;;;;;;;4.60;1.10;;;;;;;29.93;28.76;101152.09;1685204;85;21895;-83
2022/08/11 14:52:45;;;;;;;7.10;1.15;;;;;;;29.88;29.07;101152.61;1685198;85;21022;-82
2022/08/11 14:58:02;;;;;;;2.87;1.12;;;;;;;29.95;29.06;101150.09;1663853;85;21042;-84
2022/08/11 15:00:30;;;;;;;3.75;1.50;;;;;;;29.92;29.19;101154.47;1685161;85;21054;-80
2022/08/11 15:03:11;;;;;;;3.85;1.05;;;;;;;29.82;28.87;101151.93;1685376;85;21983;-80
2022/08/11 15:05:49;;;;;;;4.83;1.17;;;;;;;29.53;28.72;101168.48;1684748;83;21026;-80
2022/08/11 15:08:19;;;;;;;2.65;1.32;;;;;;;29.27;28.80;101169.37;1701389;83;21057;-80
2022/08/11 15:10:48;;;;;;;3.05;0.82;;;;;;;29.02;28.75;101171.05;1695814;83;21034;-79
2022/08/11 15:13:20;;;;;;;2.52;1.15;;;;;;;28.84;29.09;101168.89;1674189;83;21061;-79
2022/08/11 15:18:36;;;;;;;3.15;0.98;;;;;;;28.59;29.07;101162.45;1662773;85;21107;-80
2022/08/11 15:37:48;;;;;;;2.67;1.05;;;;;;;28.75;29.12;101138.30;1657672;86;20994;-84
2022/08/11 15:46:19;;;;;;;6.40;1.05;;;;;;;28.63;29.11;101135.02;1657940;86;21042;-79
2022/08/11 15:48:57;;;;;;;2.25;0.88;;;;;;;28.63;29.12;101140.92;1657476;86;20991;-77
2022/08/11 15:51:35;;;;;;;3.70;1.30;;;;;;;28.68;29.13;101135.41;1657731;86;21066;-78
2022/08/11 15:54:16;;;;;;;2.08;0.98;;;;;;;28.73;28.88;101140.30;1657550;86;21010;-78
2022/08/11 15:56:45;;;;;;;2.27;0.90;;;;;;;28.62;28.61;101139.21;1657010;86;21893;-79
2022/08/11 16:04:49;;;;;;;3.47;1.00;;;;;;;27.84;28.10;101137.09;1657753;86;20172;-73
2022/08/11 16:07:25;;;;;;;5.25;1.00;;;;;;;27.74;28.55;101133.56;1657656;86;21014;-73
2022/08/11 16:10:06;;;;;;;4.20;1.20;;;;;;;27.74;28.82;101141.17;1657616;86;21146;-74
2022/08/11 16:16:13;;;;;;;2.55;1.00;;;;;;;27.76;28.97;101139.66;1659361;84;21046;-75
2022/08/11 16:18:01;;;;;;;2.30;0.80;;;;;;;27.83;28.93;101138.10;1683740;85;21046;-78
2022/08/11 16:20:30;;;;;;;0.98;0.82;;;;;;;27.85;28.82;101133.39;1679368;84;21095;-76
2022/08/11 16:23:02;;;;;;;3.33;1.20;;;;;;;27.83;28.84;101138.10;1657456;85;21127;-78
2022/08/11 16:25:35;;;;;;;2.08;1.00;;;;;;;27.77;29.01;101132.79;1655611;85;21056;-79
2022/08/11 16:28:06;;;;;;;1.30;0.90;;;;;;;27.67;29.12;101140.57;1680825;85;21089;-78
2022/08/11 16:30:45;;;;;;;2.37;1.05;;;;;;;27.54;29.26;101139.06;1685055;85;21049;-78
2022/08/11 16:33:14;;;;;;;5.10;1.05;;;;;;;27.43;29.65;101140.60;1683394;85;21057;-78
2022/08/11 16:38:35;;;;;;;3.77;1.10;;;;;;;27.36;29.85;101144.90;1685190;85;20319;-78
2022/08/11 16:41:11;;;;;;;2.62;1.02;;;;;;;27.41;30.19;101141.74;1683159;85;21038;-78
2022/08/11 16:47:03;;;;;;;3.55;0.95;;;;;;;27.30;30.08;101142.30;1678982;83;21292;-79
2022/08/11 16:49:41;;;;;;;2.98;1.10;;;;;;;27.17;30.13;101149.84;1683389;83;22160;-78
2022/08/11 16:52:12;;;;;;;2.87;1.12;;;;;;;27.03;30.11;101145.75;1687526;83;21053;-76
2022/08/11 16:54:43;;;;;;;4.60;1.10;;;;;;;26.96;30.39;101143.78;1686445;83;22018;-75
2022/08/11 17:00:14;;;;;;;1.85;1.10;;;;;;;26.65;30.55;101147.51;1678290;83;21097;-74
2022/08/11 17:14:36;;;;;;;8.35;1.80;;;;;;;26.02;31.69;101155.09;1759739;79;21059;-77
2022/08/11 17:17:08;;;;;;;7.28;1.62;;;;;;;25.89;31.81;101147.30;1733845;81;21212;-77
2022/08/11 17:19:38;;;;;;;1.92;1.27;;;;;;;25.79;32.16;101147.73;1760952;79;21072;-79
2022/08/11 17:24:54;;;;;;;2.50;0.95;;;;;;;25.59;32.42;101150.36;1779709;79;21079;-78
2022/08/11 17:27:23;;;;;;;2.30;1.17;;;;;;;25.41;32.66;101141.73;1731288;80;21036;-78
2022/08/11 17:29:58;;;;;;;2.10;1.30;;;;;;;25.28;32.81;101140.14;1786355;79;21454;-79
2022/08/11 17:35:33;;;;;;;5.62;1.10;;;;;;;25.13;33.34;101139.59;1785814;78;21005;-77
2022/08/11 17:38:12;;;;;;;2.67;1.30;;;;;;;24.95;33.97;101140.36;1792653;78;20993;-76
2022/08/11 17:49:07;;;;;;;2.00;1.37;;;;;;;24.38;35.47;101148.65;1787562;78;21013;-79
2022/08/11 17:59:59;;;;;;;1.95;1.27;;;;;;;23.86;37.05;101140.04;1786616;78;21068;-76
2022/08/11 18:05:19;;;;;;;4.08;1.40;;;;;;;23.54;37.62;101139.45;1798482;78;20970;-81
